Time;durP1;ratioP1;P1;durP2;ratioP2;P2;SDS_P1;SDS_P2;PMS_P1;PMS_P2;Temp;Humidity;BMP_temperature;BMP_pressure;BME280_temperature;BME280_humidity;BME280_pressure;Samples;Min_cycle;Max_cycle;Signal;HPM_P1;HPM_P2
2022/02/03 00:01:11;;;;;;;17.07;10.40;;;7.10;99.90;;;;;;5079473;28;20461;-60
2022/02/03 00:03:49;;;;;;;19.17;11.10;;;7.00;99.90;;;;;;5080266;28;20439;-57
2022/02/03 00:06:24;;;;;;;20.50;13.33;;;7.10;99.90;;;;;;5078919;28;20463;-58
2022/02/03 00:09:13;;;;;;;17.87;13.67;;;7.10;99.90;;;;;;5076637;28;20484;-57
2022/02/03 00:16:11;;;;;;;23.30;13.90;;;7.20;99.90;;;;;;5078613;28;20461;-59
2022/02/03 00:22:56;;;;;;;23.67;14.40;;;7.30;99.90;;;;;;5078219;28;20460;-58
2022/02/03 00:25:29;;;;;;;25.90;16.33;;;7.30;99.90;;;;;;5079803;28;20462;-58
2022/02/03 00:28:09;;;;;;;40.70;19.50;;;7.40;99.90;;;;;;5078733;28;20501;-60
2022/02/03 00:31:00;;;;;;;34.43;19.30;;;7.40;99.90;;;;;;5079399;28;20465;-56
2022/02/03 00:33:35;;;;;;;39.87;21.40;;;7.50;99.90;;;;;;5077824;28;20559;-58
2022/02/03 00:36:18;;;;;;;39.07;20.70;;;7.60;99.90;;;;;;5082232;28;20493;-59
2022/02/03 00:50:03;;;;;;;70.20;27.43;;;7.60;99.90;;;;;;5078566;28;20444;-60
2022/02/03 00:52:36;;;;;;;59.70;24.30;;;7.60;99.90;;;;;;5078313;28;20469;-59
2022/02/03 00:55:03;;;;;;;53.60;25.07;;;7.70;99.90;;;;;;5078793;28;20457;-59
2022/02/03 00:57:34;;;;;;;47.87;25.07;;;7.70;99.90;;;;;;5077588;28;20518;-60
2022/02/03 01:00:07;;;;;;;58.83;25.80;;;7.70;99.90;;;;;;5078300;28;20465;-60
2022/02/03 01:02:38;;;;;;;57.17;27.17;;;7.70;99.90;;;;;;5077636;28;20885;-59
2022/02/03 01:05:05;;;;;;;53.43;25.70;;;7.70;99.90;;;;;;5078246;28;20955;-60
2022/02/03 01:07:35;;;;;;;54.60;26.23;;;7.80;99.90;;;;;;5076873;28;20481;-59
2022/02/03 01:10:08;;;;;;;57.03;25.20;;;7.70;99.90;;;;;;5078562;28;20465;-60
2022/02/03 01:12:48;;;;;;;46.40;24.50;;;7.80;99.90;;;;;;5077894;28;20475;-60
2022/02/03 01:15:24;;;;;;;39.20;21.33;;;7.80;99.90;;;;;;5077708;28;20473;-60
2022/02/03 01:18:08;;;;;;;44.00;21.90;;;7.70;99.90;;;;;;5077759;28;20461;-59
2022/02/03 01:21:10;;;;;;;32.37;19.50;;;7.80;99.90;;;;;;5058209;28;20466;-58
2022/02/03 01:34:51;;;;;;;27.20;16.60;;;7.80;99.90;;;;;;5076893;28;20614;-60
2022/02/03 01:37:49;;;;;;;33.47;19.27;;;7.80;99.90;;;;;;5080838;28;20941;-59
2022/02/03 01:43:21;;;;;;;28.20;16.50;;;7.90;99.90;;;;;;5077085;28;20487;-58
2022/02/03 01:45:55;;;;;;;30.37;18.77;;;7.90;99.90;;;;;;5076937;28;20468;-59
2022/02/03 01:48:39;;;;;;;31.03;19.13;;;7.90;99.90;;;;;;5076505;28;20583;-59
2022/02/03 01:53:56;;;;;;;35.60;20.67;;;7.90;99.90;;;;;;5077767;28;20427;-60
2022/02/03 01:56:25;;;;;;;31.20;19.40;;;7.90;99.90;;;;;;5076707;28;20461;-57
2022/02/03 01:59:02;;;;;;;30.77;18.90;;;7.80;99.90;;;;;;5077340;28;20507;-57
2022/02/03 02:01:31;;;;;;;36.60;21.73;;;7.80;99.90;;;;;;5076697;28;20469;-59
2022/02/03 02:04:07;;;;;;;40.77;22.67;;;7.90;99.90;;;;;;5077454;28;20495;-58
2022/02/03 02:06:55;;;;;;;36.40;20.40;;;7.90;99.90;;;;;;5075488;28;20509;-58
2022/02/03 02:09:38;;;;;;;37.67;21.90;;;7.90;99.90;;;;;;5076755;28;20493;-56
2022/02/03 02:12:24;;;;;;;38.47;22.33;;;7.90;99.90;;;;;;5075916;28;20462;-59
2022/02/03 02:37:49;;;;;;;46.07;29.10;;;7.90;99.90;;;;;;5075940;28;20483;-57
2022/02/03 02:40:46;;;;;;;43.50;28.17;;;7.90;99.90;;;;;;5074539;28;20472;-57
2022/02/03 02:43:24;;;;;;;48.30;30.10;;;7.90;99.90;;;;;;5055950;28;20532;-58
2022/02/03 02:46:04;;;;;;;46.80;28.83;;;7.90;99.90;;;;;;5071197;28;20435;-60
2022/02/03 02:48:50;;;;;;;43.90;28.40;;;7.90;99.90;;;;;;5076383;28;20591;-60
2022/02/03 02:51:26;;;;;;;48.67;28.80;;;7.90;99.90;;;;;;5075316;28;20505;-60
2022/02/03 02:54:18;;;;;;;43.00;29.10;;;7.90;99.90;;;;;;5076238;28;20486;-60
2022/02/03 02:57:04;;;;;;;43.63;26.30;;;7.90;99.90;;;;;;5076103;28;20877;-58
2022/02/03 03:00:03;;;;;;;43.90;26.33;;;7.90;99.90;;;;;;5076154;28;20882;-59
2022/02/03 03:03:00;;;;;;;38.73;25.20;;;7.90;99.90;;;;;;5075460;28;20478;-60
2022/02/03 03:30:40;;;;;;;45.90;26.80;;;7.80;99.90;;;;;;5079929;28;20979;-58
2022/02/03 03:33:20;;;;;;;47.50;26.27;;;7.80;99.90;;;;;;5079849;28;20464;-60
2022/02/03 03:35:51;;;;;;;44.00;25.00;;;7.80;99.90;;;;;;5080471;28;20931;-60
2022/02/03 03:38:19;;;;;;;40.90;26.67;;;7.80;99.90;;;;;;5078940;28;20462;-59
2022/02/03 03:40:51;;;;;;;45.03;27.90;;;7.70;99.90;;;;;;5079592;28;20553;-58
2022/02/03 03:43:29;;;;;;;52.90;29.07;;;7.80;99.90;;;;;;5078339;28;20435;-58
2022/02/03 03:45:57;;;;;;;50.77;30.43;;;7.80;99.90;;;;;;5079759;28;20460;-60
2022/02/03 03:48:31;;;;;;;46.27;29.50;;;7.80;99.90;;;;;;5079630;28;20491;-58
2022/02/03 03:51:04;;;;;;;50.57;28.60;;;7.80;99.90;;;;;;5080081;28;20894;-56
2022/02/03 03:53:44;;;;;;;51.77;30.20;;;7.80;99.90;;;;;;5078350;28;20469;-59
2022/02/03 03:56:21;;;;;;;49.10;30.33;;;7.70;99.90;;;;;;5079862;28;20471;-58
2022/02/03 04:31:15;;;;;;;32.70;23.33;;;7.70;99.90;;;;;;5072894;28;20423;-60
2022/02/03 04:34:09;;;;;;;35.17;21.93;;;7.60;99.90;;;;;;5059249;28;20438;-56
2022/02/03 04:37:21;;;;;;;28.13;20.23;;;7.60;99.90;;;;;;5071012;28;20566;-57
2022/02/03 04:40:36;;;;;;;24.50;18.23;;;7.60;99.90;;;;;;5077799;28;20886;-58
2022/02/03 04:44:01;;;;;;;22.47;16.13;;;7.60;99.90;;;;;;5079182;28;20534;-60
2022/02/03 04:53:33;;;;;;;17.77;12.67;;;7.50;99.90;;;;;;5077906;28;20786;-58
2022/02/03 05:02:19;;;;;;;23.33;15.60;;;7.50;99.90;;;;;;4986791;28;20445;-57
2022/02/03 05:05:08;;;;;;;28.13;18.90;;;7.50;99.90;;;;;;5056947;28;20493;-58
2022/02/03 05:08:10;;;;;;;24.53;17.30;;;7.40;99.90;;;;;;5076704;28;20511;-57
2022/02/03 05:11:19;;;;;;;25.63;19.20;;;7.40;99.90;;;;;;5075982;28;20492;-59
2022/02/03 05:17:34;;;;;;;25.13;18.43;;;7.40;99.90;;;;;;5068163;28;20431;-57
2022/02/03 05:20:25;;;;;;;25.60;19.20;;;7.40;99.90;;;;;;5057469;28;20458;-57
2022/02/03 05:26:25;;;;;;;25.03;19.03;;;7.30;99.90;;;;;;5075950;28;20483;-58
2022/02/03 05:32:58;;;;;;;23.73;17.10;;;7.30;99.90;;;;;;4998880;28;21904;-58
2022/02/03 05:42:17;;;;;;;22.50;16.13;;;7.30;99.90;;;;;;4996300;28;20429;-58
2022/02/03 05:45:22;;;;;;;23.50;16.67;;;7.30;99.90;;;;;;4995107;28;20742;-59
2022/02/03 05:48:19;;;;;;;22.63;15.77;;;7.30;99.90;;;;;;5067100;28;20821;-60
2022/02/03 06:02:32;;;;;;;22.27;15.17;;;7.30;99.90;;;;;;5041631;28;20412;-60
2022/02/03 06:05:05;;;;;;;19.67;14.37;;;7.20;99.90;;;;;;5074563;28;20555;-59
2022/02/03 06:07:51;;;;;;;21.73;13.97;;;7.20;99.90;;;;;;5073541;28;20534;-60
2022/02/03 06:13:09;;;;;;;23.40;15.47;;;7.20;99.90;;;;;;5073506;28;20419;-59
2022/02/03 06:15:46;;;;;;;18.30;13.90;;;7.20;99.90;;;;;;5075684;28;20845;-56
2022/02/03 06:21:26;;;;;;;23.10;14.13;;;7.20;99.90;;;;;;5074159;28;20437;-59
2022/02/03 06:23:58;;;;;;;21.40;13.87;;;7.20;99.90;;;;;;5076739;28;20511;-59
2022/02/03 06:29:18;;;;;;;18.90;12.80;;;7.20;99.90;;;;;;5072610;28;20468;-59
2022/02/03 06:31:48;;;;;;;16.93;14.27;;;7.20;99.90;;;;;;5075936;28;20828;-59
2022/02/03 06:34:16;;;;;;;17.93;14.13;;;7.20;99.90;;;;;;5076127;28;20457;-59
2022/02/03 06:36:43;;;;;;;18.73;14.17;;;7.20;99.90;;;;;;5075437;28;20544;-57
2022/02/03 06:39:18;;;;;;;20.20;15.27;;;7.20;99.90;;;;;;5076500;28;20804;-58
2022/02/03 06:41:46;;;;;;;21.47;15.90;;;7.30;99.90;;;;;;5076824;28;20511;-61
2022/02/03 06:44:15;;;;;;;19.00;14.13;;;7.30;99.90;;;;;;5076795;28;20490;-61
2022/02/03 06:46:49;;;;;;;16.60;13.27;;;7.20;99.90;;;;;;5076285;28;20436;-60
2022/02/03 06:49:23;;;;;;;16.83;13.37;;;7.20;99.90;;;;;;5077557;28;20491;-61
2022/02/03 06:51:57;;;;;;;17.73;14.33;;;7.20;99.90;;;;;;5075059;28;20560;-61
2022/02/03 06:54:32;;;;;;;22.87;15.67;;;7.20;99.90;;;;;;5076408;28;20464;-61
2022/02/03 06:57:03;;;;;;;21.80;15.47;;;7.20;99.90;;;;;;5075917;28;20489;-61
2022/02/03 06:59:38;;;;;;;19.67;15.20;;;7.20;99.90;;;;;;5076170;28;20465;-61
2022/02/03 07:02:06;;;;;;;20.50;16.80;;;7.20;99.90;;;;;;5076577;28;20465;-60
2022/02/03 07:04:41;;;;;;;21.63;16.30;;;7.20;99.90;;;;;;5076058;28;20440;-61
2022/02/03 07:07:15;;;;;;;17.73;15.00;;;7.20;99.90;;;;;;5076900;28;20467;-61
2022/02/03 07:09:43;;;;;;;18.27;15.70;;;7.10;99.90;;;;;;5076818;28;20550;-61
2022/02/03 07:12:10;;;;;;;16.77;14.27;;;7.10;99.90;;;;;;5077045;28;20777;-61
2022/02/03 07:14:37;;;;;;;17.03;13.23;;;7.20;99.90;;;;;;5076037;28;20474;-61
2022/02/03 07:17:08;;;;;;;15.70;12.90;;;7.10;99.90;;;;;;5076743;28;20436;-60
2022/02/03 07:19:43;;;;;;;14.70;11.90;;;7.10;99.90;;;;;;5076979;28;20819;-61
2022/02/03 07:22:12;;;;;;;16.00;11.73;;;7.10;99.90;;;;;;5077270;28;20465;-61
2022/02/03 07:24:42;;;;;;;15.13;11.53;;;7.10;99.90;;;;;;5076621;28;20496;-61
2022/02/03 07:27:12;;;;;;;15.00;11.50;;;7.10;99.90;;;;;;5076242;28;20501;-61
2022/02/03 07:29:41;;;;;;;15.90;11.50;;;7.10;99.90;;;;;;5076765;28;20551;-61
2022/02/03 07:32:09;;;;;;;15.90;11.90;;;7.10;99.90;;;;;;5077175;28;20497;-61
2022/02/03 07:34:39;;;;;;;14.40;11.53;;;7.10;99.90;;;;;;5076737;28;20851;-61
2022/02/03 07:37:06;;;;;;;14.20;11.80;;;7.10;99.90;;;;;;5075858;28;20515;-61
2022/02/03 07:39:33;;;;;;;15.23;11.60;;;7.10;99.90;;;;;;5077001;28;20888;-61
2022/02/03 07:42:02;;;;;;;19.60;14.30;;;7.10;99.90;;;;;;5076551;28;20526;-61
2022/02/03 07:44:29;;;;;;;13.90;10.90;;;7.10;99.90;;;;;;5076796;28;20469;-61
2022/02/03 07:46:56;;;;;;;16.17;13.30;;;7.20;99.90;;;;;;5076003;28;20444;-61
2022/02/03 07:49:23;;;;;;;14.53;12.33;;;7.20;99.90;;;;;;5076786;28;20833;-62
2022/02/03 07:51:51;;;;;;;22.13;14.37;;;7.10;99.90;;;;;;5076672;28;20467;-61
2022/02/03 07:54:18;;;;;;;16.40;12.50;;;7.10;99.90;;;;;;5076475;28;20904;-62
2022/02/03 07:56:45;;;;;;;15.90;12.13;;;7.20;99.90;;;;;;5075620;28;20489;-61
2022/02/03 07:59:12;;;;;;;16.30;12.93;;;7.20;99.90;;;;;;5076638;28;20782;-61
2022/02/03 08:01:39;;;;;;;15.63;13.93;;;7.20;99.90;;;;;;5076310;28;20484;-61
2022/02/03 08:04:08;;;;;;;16.23;12.53;;;7.20;99.90;;;;;;5076589;28;20432;-60
2022/02/03 08:06:40;;;;;;;17.83;13.33;;;7.20;99.90;;;;;;5076460;28;20464;-61
2022/02/03 08:09:14;;;;;;;16.60;13.50;;;7.20;99.90;;;;;;5075749;28;20850;-61
2022/02/03 08:11:45;;;;;;;20.10;12.97;;;7.20;99.90;;;;;;5056610;28;20756;-61
2022/02/03 08:14:16;;;;;;;17.97;13.90;;;7.20;99.90;;;;;;5056589;28;20922;-60
2022/02/03 08:16:49;;;;;;;17.23;12.90;;;7.20;99.90;;;;;;5060610;28;20487;-61
2022/02/03 08:19:21;;;;;;;18.17;12.27;;;7.20;99.90;;;;;;5059878;28;20458;-61
2022/02/03 08:21:57;;;;;;;14.17;11.70;;;7.20;99.90;;;;;;5077204;28;20563;-61
2022/02/03 08:24:29;;;;;;;16.30;11.70;;;7.20;99.90;;;;;;5079789;28;20893;-61
2022/02/03 08:27:06;;;;;;;14.23;10.93;;;7.20;99.90;;;;;;5079932;28;20465;-61
2022/02/03 08:30:03;;;;;;;15.07;11.90;;;7.20;99.90;;;;;;5079510;28;20489;-61
2022/02/03 08:32:27;;;;;;;12.30;10.23;;;7.30;99.90;;;;;;5079174;28;20460;-61
2022/02/03 08:35:18;;;;;;;15.87;12.20;;;7.30;99.90;;;;;;5079779;28;20487;-61
2022/02/03 08:37:59;;;;;;;12.63;9.93;;;7.30;99.90;;;;;;5059791;28;20871;-61
2022/02/03 08:40:31;;;;;;;13.60;10.30;;;7.30;99.90;;;;;;5059657;28;20465;-61
2022/02/03 08:42:58;;;;;;;15.43;11.00;;;7.40;99.90;;;;;;5079202;28;20471;-61
2022/02/03 08:45:27;;;;;;;12.10;10.50;;;7.30;99.90;;;;;;5079066;28;20496;-61
2022/02/03 08:47:54;;;;;;;13.40;10.20;;;7.40;99.90;;;;;;5079625;28;20575;-61
2022/02/03 08:50:23;;;;;;;12.23;10.40;;;7.30;99.90;;;;;;5079515;28;20851;-61
2022/02/03 08:53:00;;;;;;;10.60;8.63;;;7.30;99.90;;;;;;5078888;28;20465;-61
2022/02/03 08:55:40;;;;;;;14.70;11.10;;;7.30;99.90;;;;;;5079447;28;20465;-61
2022/02/03 08:58:41;;;;;;;13.40;10.27;;;7.30;99.90;;;;;;5079443;28;20472;-61
2022/02/03 09:56:54;;;;;;;13.80;11.80;;;7.30;99.90;;;;;;5094507;28;20480;-61
2022/02/03 09:59:31;;;;;;;16.10;12.70;;;7.40;99.90;;;;;;5092095;28;20472;-61
2022/02/03 10:04:49;;;;;;;11.23;9.60;;;7.40;99.90;;;;;;5085633;28;20461;-61
2022/02/03 10:07:20;;;;;;;12.87;10.80;;;7.30;99.90;;;;;;5073840;28;20464;-61
2022/02/03 10:09:51;;;;;;;14.30;10.90;;;7.40;99.90;;;;;;5073441;28;20575;-61
2022/02/03 10:12:19;;;;;;;11.93;10.40;;;7.40;99.90;;;;;;5073297;28;20495;-62
2022/02/03 10:14:47;;;;;;;14.90;11.03;;;7.40;99.90;;;;;;5073474;28;20500;-61
2022/02/03 10:17:18;;;;;;;14.20;11.30;;;7.50;99.90;;;;;;5073732;28;20493;-62
2022/02/03 10:19:50;;;;;;;14.13;11.43;;;7.40;99.90;;;;;;5074755;28;20436;-61
2022/02/03 10:22:20;;;;;;;14.73;11.23;;;7.40;99.90;;;;;;5073325;28;20436;-61
2022/02/03 10:24:51;;;;;;;12.00;9.20;;;7.40;99.90;;;;;;5073592;28;20444;-61
2022/02/03 10:27:28;;;;;;;10.90;9.40;;;7.40;99.90;;;;;;5090509;28;20732;-61
2022/02/03 10:30:18;;;;;;;14.10;10.33;;;7.30;99.90;;;;;;5092351;28;20480;-61
2022/02/03 10:32:48;;;;;;;18.20;11.13;;;7.20;99.90;;;;;;5094474;28;20456;-61
2022/02/03 10:35:29;;;;;;;17.87;13.27;;;7.10;99.90;;;;;;5093054;28;20516;-61
2022/02/03 10:44:13;;;;;;;17.10;13.50;;;6.90;99.90;;;;;;5073481;28;20468;-61
2022/02/03 10:49:59;;;;;;;17.67;14.20;;;6.80;99.90;;;;;;5079387;28;20411;-61
2022/02/03 10:56:03;;;;;;;18.13;13.90;;;6.80;99.90;;;;;;5094207;27;20576;-59
2022/02/03 11:07:15;;;;;;;17.23;13.20;;;6.80;99.90;;;;;;5094097;28;20879;-61
2022/02/03 11:09:55;;;;;;;24.63;15.80;;;6.70;99.90;;;;;;5093926;28;20970;-61
2022/02/03 11:12:29;;;;;;;18.73;14.60;;;6.80;99.90;;;;;;5094286;28;20504;-61
2022/02/03 11:15:00;;;;;;;24.70;15.10;;;6.80;99.90;;;;;;5095311;28;20467;-61
2022/02/03 11:17:31;;;;;;;18.07;13.50;;;6.80;99.90;;;;;;5094090;28;20559;-62
2022/02/03 11:20:05;;;;;;;21.40;14.50;;;6.70;99.90;;;;;;5091279;28;20464;-61
2022/02/03 11:22:46;;;;;;;22.00;14.13;;;6.70;99.90;;;;;;5094315;28;20492;-61
2022/02/03 11:25:29;;;;;;;17.47;13.80;;;6.70;99.90;;;;;;5094218;28;20928;-61
2022/02/03 11:28:19;;;;;;;14.50;11.30;;;6.70;99.90;;;;;;5093788;28;20466;-61
2022/02/03 11:42:42;;;;;;;10.37;9.33;;;6.80;99.90;;;;;;5094125;28;20425;-62
2022/02/03 11:45:47;;;;;;;12.33;10.67;;;6.80;99.90;;;;;;5094287;28;20757;-62
2022/02/03 11:51:13;;;;;;;10.67;9.07;;;6.80;99.90;;;;;;5093256;28;20444;-62
2022/02/03 11:57:14;;;;;;;12.10;9.20;;;6.90;99.90;;;;;;5093631;28;20429;-62
2022/02/03 12:02:52;;;;;;;11.80;8.30;;;6.90;99.90;;;;;;5092867;28;20443;-62
2022/02/03 12:11:46;;;;;;;11.00;8.73;;;6.90;99.90;;;;;;5073851;28;20887;-62
2022/02/03 12:14:43;;;;;;;10.20;8.37;;;6.90;99.90;;;;;;5079765;28;20999;-62
2022/02/03 12:17:26;;;;;;;13.90;10.90;;;6.80;99.90;;;;;;5078507;28;20523;-62
2022/02/03 12:20:06;;;;;;;16.57;9.80;;;6.90;99.90;;;;;;5080074;28;20440;-62
2022/02/03 12:22:44;;;;;;;14.87;11.03;;;6.80;99.90;;;;;;5078340;28;20465;-62
2022/02/03 12:25:25;;;;;;;9.70;8.20;;;6.80;99.90;;;;;;5079413;28;20621;-62
2022/02/03 12:28:10;;;;;;;7.87;6.87;;;6.80;99.90;;;;;;5079951;28;20512;-62
2022/02/03 12:30:52;;;;;;;11.90;7.67;;;6.70;99.90;;;;;;5079156;28;20563;-63
2022/02/03 12:39:05;;;;;;;9.30;7.03;;;6.60;99.90;;;;;;5079057;28;20432;-62
2022/02/03 12:41:37;;;;;;;7.20;6.50;;;6.60;99.90;;;;;;5078507;28;20461;-62
2022/02/03 12:44:14;;;;;;;9.27;6.57;;;6.50;99.90;;;;;;5079357;28;20945;-62
2022/02/03 12:46:46;;;;;;;8.47;7.60;;;6.60;99.90;;;;;;5078555;28;20461;-62
2022/02/03 12:49:13;;;;;;;8.43;7.43;;;6.50;99.90;;;;;;5079286;28;20522;-62
2022/02/03 12:51:44;;;;;;;10.50;8.00;;;6.60;99.90;;;;;;5078099;28;20471;-62
2022/02/03 12:54:12;;;;;;;8.90;7.57;;;6.50;99.90;;;;;;5078398;28;20500;-62
2022/02/03 12:56:40;;;;;;;7.43;6.63;;;6.50;99.90;;;;;;5077618;28;20497;-62
2022/02/03 12:59:10;;;;;;;9.17;6.90;;;6.60;99.90;;;;;;5078487;28;20465;-62
2022/02/03 13:01:40;;;;;;;8.50;7.70;;;6.50;99.90;;;;;;5078662;28;20957;-62
2022/02/03 13:04:12;;;;;;;11.33;7.27;;;6.40;99.90;;;;;;5078443;28;20510;-62
2022/02/03 13:06:46;;;;;;;7.90;7.10;;;6.40;99.90;;;;;;5077703;28;20488;-62
2022/02/03 13:09:14;;;;;;;8.20;7.40;;;6.50;99.90;;;;;;5078132;28;20465;-62
2022/02/03 13:11:46;;;;;;;10.40;7.17;;;6.50;99.90;;;;;;5078406;28;20559;-61
2022/02/03 13:14:25;;;;;;;10.03;7.50;;;6.50;99.90;;;;;;5077460;28;20841;-59
2022/02/03 13:16:58;;;;;;;8.47;6.80;;;6.50;99.90;;;;;;5071174;28;20457;-62
2022/02/03 13:19:34;;;;;;;7.27;6.53;;;6.50;99.90;;;;;;5057347;28;20462;-59
2022/02/03 13:22:16;;;;;;;9.00;7.73;;;6.50;99.90;;;;;;5064629;28;20967;-61
2022/02/03 13:25:04;;;;;;;9.00;8.10;;;6.50;99.90;;;;;;5078588;28;20465;-61
2022/02/03 13:27:39;;;;;;;8.13;7.20;;;6.50;99.90;;;;;;5077720;28;20465;-61
2022/02/03 13:30:12;;;;;;;9.23;8.33;;;6.50;99.90;;;;;;5078405;28;20469;-60
2022/02/03 13:32:43;;;;;;;9.70;8.00;;;6.40;99.90;;;;;;5077756;28;20548;-61
2022/02/03 13:35:23;;;;;;;8.97;7.73;;;6.40;99.90;;;;;;5078376;28;20485;-61
2022/02/03 13:37:56;;;;;;;9.00;8.10;;;6.40;99.90;;;;;;5097781;28;20482;-62
2022/02/03 13:40:26;;;;;;;9.47;7.93;;;6.50;99.90;;;;;;5057941;28;20764;-61
2022/02/03 13:43:00;;;;;;;9.50;8.50;;;6.40;99.90;;;;;;5063301;28;20447;-63
2022/02/03 13:45:27;;;;;;;8.80;7.67;;;6.40;99.90;;;;;;5077919;28;20511;-61
2022/02/03 13:47:54;;;;;;;12.70;8.07;;;6.30;99.90;;;;;;5078337;28;20496;-62
2022/02/03 13:50:24;;;;;;;9.73;7.33;;;6.40;99.90;;;;;;5076906;28;20493;-62
2022/02/03 13:52:58;;;;;;;11.13;6.93;;;6.30;99.90;;;;;;5077566;28;20760;-63
2022/02/03 14:15:45;;;;;;;9.70;7.87;;;6.30;99.90;;;;;;5076864;28;20484;-62
2022/02/03 14:18:20;;;;;;;9.47;8.47;;;6.30;99.90;;;;;;5076976;28;20968;-62
2022/02/03 14:21:00;;;;;;;9.30;8.30;;;6.30;99.90;;;;;;5076773;28;20465;-62
2022/02/03 14:29:37;;;;;;;9.87;8.30;;;6.30;99.90;;;;;;5075890;28;20492;-62
2022/02/03 14:32:07;;;;;;;8.97;8.07;;;6.30;99.90;;;;;;5076337;28;20471;-62
2022/02/03 14:34:35;;;;;;;10.00;8.03;;;6.30;99.90;;;;;;5076751;28;20774;-63
2022/02/03 14:37:06;;;;;;;8.03;7.23;;;6.30;99.90;;;;;;5076250;28;20483;-62
2022/02/03 14:39:49;;;;;;;10.47;8.10;;;6.20;99.90;;;;;;5076760;28;20440;-62
2022/02/03 14:42:17;;;;;;;9.00;8.00;;;6.20;99.90;;;;;;5076096;28;20465;-63
2022/02/03 14:44:47;;;;;;;10.37;8.83;;;6.20;99.90;;;;;;5076502;28;20467;-63
2022/02/03 14:47:17;;;;;;;9.00;8.10;;;6.20;99.90;;;;;;5074978;28;20489;-63
2022/02/03 14:49:45;;;;;;;13.60;8.20;;;6.20;99.90;;;;;;5075930;28;20465;-63
2022/02/03 14:52:22;;;;;;;10.00;8.43;;;6.20;99.90;;;;;;5074472;28;20587;-63
2022/02/03 15:00:22;;;;;;;10.70;8.80;;;6.10;99.90;;;;;;5070918;28;20879;-62
2022/02/03 15:02:50;;;;;;;9.97;8.53;;;6.10;99.90;;;;;;5074736;28;20941;-62
2022/02/03 15:05:25;;;;;;;11.00;8.77;;;6.10;99.90;;;;;;5074271;28;20467;-62
2022/02/03 15:07:57;;;;;;;9.83;8.73;;;6.10;99.90;;;;;;5073161;28;20794;-62
2022/02/03 15:10:46;;;;;;;11.83;9.43;;;6.10;99.90;;;;;;5075378;28;20453;-62
2022/02/03 15:13:30;;;;;;;12.20;9.43;;;6.10;99.90;;;;;;5063000;28;20875;-62
2022/02/03 15:15:59;;;;;;;11.50;9.63;;;6.00;99.90;;;;;;5077374;28;20515;-62
2022/02/03 15:18:26;;;;;;;10.60;9.47;;;6.10;99.90;;;;;;5075960;28;20440;-62
2022/02/03 15:20:56;;;;;;;10.73;9.00;;;6.10;99.90;;;;;;5076564;28;20482;-62
2022/02/03 15:23:23;;;;;;;12.90;9.83;;;6.10;99.90;;;;;;5075406;28;20514;-62
2022/02/03 15:25:51;;;;;;;24.47;17.87;;;6.10;99.90;;;;;;5077119;28;20528;-63
2022/02/03 15:28:19;;;;;;;12.73;11.37;;;6.20;99.90;;;;;;5075120;28;20531;-62
2022/02/03 15:30:46;;;;;;;14.40;10.17;;;6.20;99.90;;;;;;5075672;28;20465;-62
2022/02/03 15:33:15;;;;;;;13.53;12.13;;;6.30;99.90;;;;;;5074685;28;20469;-62
2022/02/03 15:35:45;;;;;;;12.20;10.90;;;6.30;99.90;;;;;;5073308;28;20482;-63
2022/02/03 15:38:16;;;;;;;11.97;10.77;;;6.30;99.90;;;;;;5076429;28;20906;-62
2022/02/03 15:40:48;;;;;;;17.50;11.60;;;6.20;99.90;;;;;;5076887;28;20468;-62
2022/02/03 15:43:25;;;;;;;12.03;10.77;;;6.20;99.90;;;;;;5077183;28;20756;-62
2022/02/03 15:45:58;;;;;;;13.67;11.70;;;6.20;99.90;;;;;;5078296;28;20904;-63
2022/02/03 15:48:39;;;;;;;16.90;13.27;;;6.30;99.90;;;;;;5079266;28;20468;-63
2022/02/03 15:51:24;;;;;;;13.63;11.97;;;6.20;99.90;;;;;;5078749;28;20465;-62
2022/02/03 15:57:02;;;;;;;14.60;11.67;;;6.00;99.90;;;;;;5035406;28;20463;-63
2022/02/03 16:18:53;;;;;;;14.70;13.20;;;5.90;99.90;;;;;;4998148;28;20433;-63
2022/02/03 16:21:28;;;;;;;13.07;11.67;;;5.90;99.90;;;;;;5044573;28;20524;-63
2022/02/03 16:41:00;;;;;;;16.57;13.00;;;5.80;99.90;;;;;;5078373;28;20491;-63
2022/02/03 16:50:21;;;;;;;14.53;12.87;;;5.80;99.90;;;;;;5079523;28;20465;-63
2022/02/03 16:54:57;;;;;;;18.13;12.47;;;5.80;99.90;;;;;;5075945;28;20473;-63
2022/02/03 16:57:26;;;;;;;15.40;13.30;;;5.80;99.90;;;;;;5078815;28;20453;-63
2022/02/03 16:59:58;;;;;;;15.33;13.53;;;5.80;99.90;;;;;;5078452;28;20746;-63
2022/02/03 17:02:35;;;;;;;14.07;12.57;;;5.80;99.90;;;;;;5077775;28;20457;-63
2022/02/03 17:05:02;;;;;;;16.20;12.90;;;5.80;99.90;;;;;;5077743;28;20457;-62
2022/02/03 17:07:31;;;;;;;14.87;13.17;;;5.80;99.90;;;;;;5077743;28;20468;-62
2022/02/03 17:09:58;;;;;;;15.73;13.53;;;5.80;99.90;;;;;;5078666;28;20514;-62
2022/02/03 17:12:28;;;;;;;14.53;13.07;;;5.90;99.90;;;;;;5078107;28;20473;-62
2022/02/03 17:14:58;;;;;;;18.50;14.17;;;5.90;99.90;;;;;;5077497;28;21021;-61
2022/02/03 17:17:26;;;;;;;19.50;14.37;;;6.00;99.90;;;;;;5078652;28;20913;-62
2022/02/03 17:19:53;;;;;;;16.83;14.13;;;6.00;99.90;;;;;;5076874;28;20461;-61
2022/02/03 17:22:26;;;;;;;18.20;14.67;;;6.10;99.90;;;;;;5073554;28;20461;-61
2022/02/03 17:25:03;;;;;;;16.23;14.53;;;6.10;99.90;;;;;;5076422;28;20544;-61
2022/02/03 17:27:36;;;;;;;15.13;13.53;;;6.10;99.90;;;;;;5073456;28;20850;-61
2022/02/03 17:30:08;;;;;;;15.53;13.93;;;6.20;99.90;;;;;;5075182;28;20462;-61
2022/02/03 18:03:06;;;;;;;23.40;17.63;;;5.80;99.90;;;;;;5073115;28;20432;-62
2022/02/03 18:08:40;;;;;;;24.60;16.13;;;5.80;99.90;;;;;;5075071;28;20503;-62
2022/02/03 18:11:24;;;;;;;20.57;16.00;;;5.80;99.90;;;;;;5073794;28;20469;-62
2022/02/03 18:19:45;;;;;;;23.23;17.43;;;5.70;99.90;;;;;;5072997;28;20734;-62
2022/02/03 18:30:33;;;;;;;28.50;22.40;;;5.70;99.90;;;;;;5074621;28;20451;-62
2022/02/03 18:36:08;;;;;;;24.07;18.37;;;5.80;99.90;;;;;;5075225;28;20465;-62
2022/02/03 18:52:27;;;;;;;26.93;18.47;;;5.80;99.90;;;;;;5058336;28;20445;-62
2022/02/03 18:55:13;;;;;;;21.03;18.80;;;5.70;99.90;;;;;;5071947;28;20476;-62
2022/02/03 18:57:53;;;;;;;26.07;17.67;;;5.70;99.90;;;;;;5072761;28;20902;-62
2022/02/03 19:00:37;;;;;;;27.50;19.00;;;5.80;99.90;;;;;;5073847;28;20881;-62
2022/02/03 19:26:00;;;;;;;24.90;19.37;;;5.80;99.90;;;;;;5080693;28;20466;-61
2022/02/03 20:02:08;;;;;;;28.17;20.80;;;5.80;99.90;;;;;;5079144;28;20951;-59
2022/02/03 20:04:47;;;;;;;25.87;18.97;;;5.80;99.90;;;;;;5070230;28;20882;-61
2022/02/03 20:07:23;;;;;;;30.33;20.53;;;5.80;99.90;;;;;;5079741;28;20901;-61
2022/02/03 20:10:04;;;;;;;29.43;20.93;;;5.90;99.90;;;;;;5078863;28;20996;-61
2022/02/03 20:12:44;;;;;;;26.20;20.03;;;5.80;99.90;;;;;;5078997;28;20459;-61
2022/02/03 20:15:12;;;;;;;29.47;19.97;;;5.80;99.90;;;;;;5079278;28;20500;-61
2022/02/03 20:17:39;;;;;;;26.10;19.80;;;5.80;99.90;;;;;;5078829;28;20471;-61
2022/02/03 20:20:07;;;;;;;28.80;19.53;;;5.80;99.90;;;;;;5079105;28;20504;-61
2022/02/03 20:22:39;;;;;;;26.00;19.90;;;5.80;99.90;;;;;;5079070;28;20497;-61
2022/02/03 20:25:10;;;;;;;23.83;19.37;;;5.80;99.90;;;;;;5079646;28;20967;-61
2022/02/03 20:27:37;;;;;;;29.80;20.00;;;5.80;99.90;;;;;;5078490;28;20959;-61
2022/02/03 20:30:06;;;;;;;24.30;17.80;;;5.80;99.90;;;;;;5078433;28;20504;-61
2022/02/03 20:32:36;;;;;;;30.83;22.40;;;5.80;99.90;;;;;;5076948;28;20518;-61
2022/02/03 20:35:04;;;;;;;25.57;20.27;;;5.80;99.90;;;;;;5078149;28;20468;-61
2022/02/03 20:37:32;;;;;;;28.50;19.57;;;5.80;99.90;;;;;;5078926;28;20461;-61
2022/02/03 20:39:59;;;;;;;30.13;20.90;;;5.80;99.90;;;;;;5078644;28;20469;-61
2022/02/03 20:42:27;;;;;;;29.47;20.33;;;5.80;99.90;;;;;;5078516;28;20489;-61
2022/02/03 20:44:54;;;;;;;28.00;19.97;;;5.80;99.90;;;;;;5078678;28;20461;-61
2022/02/03 20:47:25;;;;;;;27.80;20.80;;;5.90;99.90;;;;;;5078579;28;20803;-61
2022/02/03 20:49:59;;;;;;;29.17;21.17;;;5.80;99.90;;;;;;5078909;28;20564;-61
2022/02/03 20:52:26;;;;;;;27.60;21.37;;;5.80;99.90;;;;;;5078603;28;20548;-61
2022/02/03 20:54:56;;;;;;;27.40;20.87;;;5.90;99.90;;;;;;5078548;28;20489;-61
2022/02/03 20:57:24;;;;;;;27.37;20.20;;;5.90;99.90;;;;;;5078313;28;20578;-61
2022/02/03 21:00:02;;;;;;;29.33;19.77;;;5.90;99.90;;;;;;5078177;28;20466;-61
2022/02/03 21:02:40;;;;;;;25.97;19.00;;;5.90;99.90;;;;;;5078638;28;20468;-61
2022/02/03 21:05:12;;;;;;;24.27;18.93;;;5.90;99.90;;;;;;5074095;28;20584;-61
2022/02/03 21:07:43;;;;;;;25.37;20.47;;;5.90;99.90;;;;;;5062919;28;20531;-61
2022/02/03 21:10:14;;;;;;;24.53;19.80;;;5.90;99.90;;;;;;5069379;28;20499;-61
2022/02/03 21:12:42;;;;;;;26.50;20.40;;;5.90;99.90;;;;;;5070085;28;20500;-61
2022/02/03 21:15:13;;;;;;;29.13;21.47;;;5.90;99.90;;;;;;5070250;28;20525;-61
2022/02/03 21:17:40;;;;;;;32.50;23.40;;;5.90;99.90;;;;;;5070153;28;20479;-61
2022/02/03 21:20:13;;;;;;;28.60;22.27;;;5.90;99.90;;;;;;5077549;28;20465;-61
2022/02/03 21:22:41;;;;;;;36.23;24.00;;;5.90;99.90;;;;;;5076247;28;20457;-61